createdAt,value
2023-01-31T00:04:57.722Z,18.10
2023-01-31T00:07:24.919Z,16.40
2023-01-31T00:09:52.132Z,16.90
2023-01-31T00:12:18.660Z,17.50
2023-01-31T00:14:45.456Z,18.60
2023-01-31T00:17:12.396Z,17.20
2023-01-31T00:19:39.568Z,17.70
2023-01-31T00:22:06.553Z,18.20
2023-01-31T00:24:34.866Z,17.80
2023-01-31T00:27:01.647Z,17.70
2023-01-31T00:29:28.549Z,17.60
2023-01-31T00:31:55.747Z,17.60
2023-01-31T00:34:22.576Z,17.10
2023-01-31T00:36:49.668Z,17.60
2023-01-31T00:39:16.297Z,16.10
2023-01-31T00:41:45.217Z,20.10
2023-01-31T00:44:13.177Z,21.80
2023-01-31T00:46:40.100Z,25.20
2023-01-31T00:49:06.999Z,27.00
2023-01-31T00:51:34.500Z,27.50
2023-01-31T00:54:01.902Z,24.50
2023-01-31T00:56:28.770Z,21.60
2023-01-31T00:58:56.181Z,24.00
2023-01-31T01:01:25.725Z,18.90
2023-01-31T01:03:52.752Z,19.00
2023-01-31T01:06:23.770Z,32.20
2023-01-31T01:16:58.476Z,17.60
2023-01-31T01:19:26.134Z,16.00
2023-01-31T01:21:55.019Z,20.60
2023-01-31T01:24:21.703Z,28.90
2023-01-31T01:26:48.493Z,23.70
2023-01-31T01:29:15.448Z,21.20
2023-01-31T01:31:43.349Z,19.80
2023-01-31T01:34:14.777Z,19.40
2023-01-31T01:36:42.206Z,18.90
2023-01-31T01:39:10.157Z,19.90
2023-01-31T01:41:37.478Z,17.30
2023-01-31T01:44:24.879Z,17.60
2023-01-31T01:46:51.727Z,17.20
2023-01-31T01:49:27.925Z,16.50
2023-01-31T01:51:55.136Z,17.20
2023-01-31T01:54:24.581Z,19.60
2023-01-31T01:56:53.754Z,18.60
2023-01-31T16:04:24.463Z,19.20
2023-01-31T16:06:54.237Z,19.20
2023-01-31T16:09:26.496Z,18.20
2023-01-31T16:11:54.295Z,17.30
2023-01-31T16:14:22.497Z,18.40
2023-01-31T16:16:52.290Z,19.10
2023-01-31T16:19:32.925Z,21.30
2023-01-31T16:21:59.883Z,20.80
2023-01-31T16:24:26.831Z,20.70
2023-01-31T16:27:08.756Z,21.00
2023-01-31T16:29:39.715Z,20.00
2023-01-31T16:32:27.659Z,20.90
2023-01-31T16:35:06.352Z,19.70
2023-01-31T16:37:36.733Z,19.30
2023-01-31T16:40:28.592Z,21.10
2023-01-31T16:43:23.892Z,18.30
2023-01-31T16:45:56.007Z,17.50
2023-01-31T16:48:24.566Z,18.20
2023-01-31T16:50:52.852Z,17.00
2023-01-31T16:53:32.557Z,17.80
2023-01-31T16:56:19.906Z,16.50
2023-01-31T16:58:56.581Z,17.20
2023-01-31T17:01:31.203Z,17.00
2023-01-31T17:04:18.271Z,17.70
2023-01-31T17:06:49.100Z,18.80
2023-01-31T17:09:21.014Z,17.50
2023-01-31T17:11:47.943Z,17.10
2023-01-31T17:14:15.620Z,18.70
2023-01-31T17:16:42.369Z,18.50
2023-01-31T17:19:10.867Z,19.30
2023-01-31T17:21:40.477Z,18.30
2023-01-31T17:24:14.910Z,20.70
2023-01-31T17:26:41.688Z,20.00
2023-01-31T17:29:08.574Z,18.40
2023-01-31T17:31:35.297Z,18.40
2023-01-31T17:34:03.181Z,18.80
2023-01-31T17:36:30.275Z,17.90
2023-01-31T17:38:57.687Z,18.40
2023-01-31T17:41:27.200Z,20.40
2023-01-31T17:43:53.934Z,27.50
2023-01-31T17:46:20.934Z,23.00
2023-01-31T17:48:47.809Z,20.90
2023-01-31T17:51:14.984Z,22.00
2023-01-31T17:53:49.540Z,23.30
2023-01-31T17:56:17.715Z,19.90
2023-01-31T17:58:44.629Z,20.40
2023-01-31T18:01:13.259Z,22.40
2023-01-31T18:03:40.834Z,23.20
2023-01-31T18:06:08.138Z,22.50
2023-01-31T18:08:35.153Z,25.60
2023-01-31T18:11:06.191Z,21.80
2023-01-31T18:13:35.225Z,19.00
2023-01-31T18:16:07.357Z,19.40
2023-01-31T18:18:37.757Z,20.50
2023-01-31T18:21:05.093Z,22.20
2023-01-31T18:23:32.211Z,34.00
2023-01-31T18:25:59.695Z,30.40
2023-01-31T18:28:26.619Z,27.50
2023-01-31T18:30:53.332Z,25.70
2023-01-31T18:33:20.315Z,21.90
2023-01-31T18:35:58.006Z,22.00
2023-01-31T18:38:25.877Z,22.60
2023-01-31T18:40:52.820Z,22.90
2023-01-31T18:43:20.316Z,20.50
2023-01-31T18:45:47.784Z,18.30
2023-01-31T18:48:14.474Z,19.30
2023-01-31T18:50:41.345Z,18.20
2023-01-31T18:53:08.027Z,21.00
2023-01-31T18:55:35.014Z,21.50
2023-01-31T18:58:01.750Z,23.30
2023-01-31T19:00:29.018Z,20.80
2023-01-31T19:02:56.200Z,18.50
2023-01-31T19:05:23.745Z,20.60
2023-01-31T19:07:51.278Z,17.20
2023-01-31T19:10:18.634Z,18.70
2023-01-31T19:12:45.549Z,18.40
2023-01-31T19:15:13.113Z,21.20
2023-01-31T19:17:40.103Z,18.20
2023-01-31T19:20:08.002Z,15.60
2023-01-31T19:22:35.745Z,15.90
2023-01-31T19:25:04.921Z,15.80
2023-01-31T19:27:33.440Z,15.40
2023-01-31T19:30:00.659Z,14.10
2023-01-31T19:32:28.889Z,14.50
2023-01-31T19:34:55.534Z,12.50
